Aviation Digital Data Service (ADDS)

Output produced by METARs form (1453 UTC 04 August 2021)
found at http://www.aviationweather.gov/metar/data/
 
METAR text: EHKD 041425Z AUTO 03007KT 360V060 9999 BKN060 OVC066 19/13 Q1013 BLU TEMPO SCT025CB
Conditions at: EHKD (DE KOOY (NAVY) , NL) observed 1425 UTC 04 August 2021
Temperature: 19.0°C (66°F)
Dewpoint: 13.0°C (55°F) [RH = 68%]
Pressure (altimeter): 29.91 inches Hg (1013.0 mb)
Winds: from the NNE (30 degrees) at 8 MPH (7 knots; 3.6 m/s)
Visibility: 6 or more miles (10+ km)
Ceiling: 6000 feet AGL
Clouds: broken clouds at 6000 feet AGL
overcast cloud deck at 6600 feet AGL
Weather: no significant weather observed at this time

METAR text: EHKD 041355Z AUTO 04008KT 360V080 9999 SCT065 20/13 Q1013 BLU TEMPO SCT025CB
Conditions at: EHKD (DE KOOY (NAVY) , NL) observed 1355 UTC 04 August 2021
Temperature: 20.0°C (68°F)
Dewpoint: 13.0°C (55°F) [RH = 64%]
Pressure (altimeter): 29.91 inches Hg (1013.0 mb)
Winds: from the NE (40 degrees) at 9 MPH (8 knots; 4.1 m/s)
Visibility: 6 or more miles (10+ km)
Ceiling: at least 12,000 feet AGL
Clouds: scattered clouds at 6500 feet AGL
Weather: no significant weather observed at this time

Forecast for: EHKD (DE KOOY (NAVY) , NL)
Text: TAF EHKD 041224Z 0413/0501 06010KT 9999 SCT025
Forecast period: 1300 to 1800 UTC 04 August 2021
Forecast type: FROM: standard forecast or significant change
Winds: from the ENE (60 degrees) at 12 MPH (10 knots; 5.1 m/s)
Visibility: 6 or more miles (10+ km)
Ceiling: at least 12,000 feet AGL
Clouds: scattered clouds at 2500 feet AGL
Weather: no significant weather forecast for this period
Text: PROB30
Forecast period: 1300 to 1900 UTC 04 August 2021
Forecast type: TEMPORARY: The following changes expected for less than half the time period
Visibility: missing
Ceiling: at least 12,000 feet AGL
Clouds: scattered clouds at 2500 feet AGL
Weather: no significant weather forecast for this period
Text: TEMPO 0413/0419 SCT025CB
Forecast period: 1800 UTC 04 August 2021 to 0100 UTC 05 August 2021
Forecast type: BECOMING: Conditions expected to become as follows by 2000 UTC 04 August 2021
Winds: from the E (90 degrees) at 6 MPH (5 knots; 2.6 m/s)
Visibility: 6 or more miles (10+ km)
Ceiling: at least 12,000 feet AGL
Clouds: scattered clouds at 2500 feet AGL
Weather: no significant weather forecast for this period